Terminal Aerodrome Forecast
Issued by NWS

Home | Current Version | Previous Version | Text Only | Print | Product List | Glossary On
Versions: 1 2 3 4 5 6 7 8 9 10 11 12 13 14 15 16
000
FTUS43 KICT 171100
TAFCNU
TAF
KCNU 171129Z 1712/1812 22008KT P6SM SCT010 BKN025
      TEMPO 1712/1715 3SM BR BKN004
     FM171500 22008KT P6SM BKN030
     FM171800 25010KT P6SM SCT035
     FM180000 05010KT P6SM SCT030=

USA.gov is the U.S. government's official web portal to all federal, state and local government web resources and services.